createdAt,value
2023-04-12T00:01:07.857Z,4.20
2023-04-12T00:03:41.659Z,4.20
2023-04-12T00:06:18.523Z,4.20
2023-04-12T00:08:53.582Z,4.10
2023-04-12T00:11:20.669Z,4.10
2023-04-12T00:13:54.635Z,4.10
2023-04-12T00:16:28.496Z,4.10
2023-04-12T00:18:55.702Z,4.10
2023-04-12T00:21:30.563Z,4.10
2023-04-12T00:24:04.400Z,4.10
2023-04-12T00:26:38.479Z,4.10
2023-04-12T00:29:05.643Z,4.10
2023-04-12T00:31:46.610Z,4.10
2023-04-12T00:34:13.939Z,4.00
2023-04-12T00:36:47.657Z,4.00
2023-04-12T00:39:21.455Z,4.10
2023-04-12T00:41:48.833Z,4.10
2023-04-12T00:44:24.378Z,4.00
2023-04-12T00:46:58.507Z,4.00
2023-04-12T00:49:37.543Z,3.90
2023-04-12T00:52:08.824Z,3.90
2023-04-12T00:54:43.461Z,3.90
2023-04-12T00:57:17.489Z,3.90
2023-04-12T00:59:45.204Z,3.90
2023-04-12T01:02:18.700Z,3.90
2023-04-12T01:04:50.794Z,3.90
2023-04-12T01:07:35.372Z,3.90
2023-04-12T01:10:29.057Z,3.90
2023-04-12T01:13:23.534Z,3.90
2023-04-12T01:16:38.582Z,3.80
2023-04-12T01:19:35.407Z,3.80
2023-04-12T01:22:32.934Z,3.80
2023-04-12T01:25:09.503Z,3.70
2023-04-12T01:28:16.521Z,3.70
2023-04-12T01:30:44.188Z,3.60
2023-04-12T01:33:25.494Z,3.60
2023-04-12T01:35:54.974Z,3.50
2023-04-12T01:38:29.513Z,3.50
2023-04-12T01:40:57.396Z,3.50
2023-04-12T01:43:31.424Z,3.50
2023-04-12T01:45:59.916Z,3.40
2023-04-12T01:48:33.344Z,3.40
2023-04-12T01:51:26.466Z,3.40
2023-04-12T01:54:09.456Z,3.40
2023-04-12T01:56:44.572Z,3.40
2023-04-12T01:59:21.541Z,3.40
2023-04-12T02:01:55.546Z,3.50
2023-04-12T02:04:32.479Z,3.40
2023-04-12T02:07:00.204Z,3.50
2023-04-12T02:09:34.741Z,3.50
2023-04-12T02:12:02.231Z,3.50
2023-04-12T02:14:42.574Z,3.50
2023-04-12T02:17:16.542Z,3.50
2023-04-12T02:19:50.464Z,3.50
2023-04-12T02:22:17.913Z,3.50
2023-04-12T02:24:51.520Z,3.50
2023-04-12T02:27:25.884Z,3.50
2023-04-12T02:29:53.837Z,3.50
2023-04-12T02:32:51.602Z,3.50
2023-04-12T02:35:18.938Z,3.50
2023-04-12T02:37:54.598Z,3.50
2023-04-12T02:40:22.185Z,3.50
2023-04-12T02:42:55.477Z,3.50
2023-04-12T02:45:29.739Z,3.50
2023-04-12T02:47:56.974Z,3.40
2023-04-12T02:50:30.713Z,3.40
2023-04-12T02:52:58.059Z,3.40
2023-04-12T02:55:32.480Z,3.50
2023-04-12T02:58:06.520Z,3.50
2023-04-12T03:00:40.653Z,3.40
2023-04-12T03:03:09.268Z,3.40
2023-04-12T03:05:43.780Z,3.40
2023-04-12T03:08:17.673Z,3.30
2023-04-12T03:10:51.548Z,3.40
2023-04-12T03:13:18.769Z,3.40
2023-04-12T03:15:56.775Z,3.40
2023-04-12T03:18:24.298Z,3.40
2023-04-12T03:20:59.528Z,3.30
2023-04-12T03:23:26.776Z,3.30
2023-04-12T03:26:00.579Z,3.30
2023-04-12T03:28:27.784Z,3.40
2023-04-12T03:31:01.484Z,3.40
2023-04-12T03:33:35.305Z,3.40
2023-04-12T03:36:09.774Z,3.40
2023-04-12T03:38:36.771Z,3.40
2023-04-12T03:41:10.582Z,3.50
2023-04-12T03:43:37.868Z,3.50
2023-04-12T03:46:12.699Z,3.50
2023-04-12T03:48:52.510Z,3.50
2023-04-12T03:51:22.392Z,3.50
2023-04-12T03:53:56.995Z,3.50
2023-04-12T03:56:31.542Z,3.50
2023-04-12T03:58:58.732Z,3.60
2023-04-12T04:01:26.219Z,3.60
2023-04-12T04:03:59.804Z,3.60
2023-04-12T04:06:34.573Z,3.60
2023-04-12T04:09:08.486Z,3.60
2023-04-12T04:11:35.988Z,3.70
2023-04-12T04:14:09.564Z,3.70
2023-04-12T04:16:43.701Z,3.70
2023-04-12T04:19:11.334Z,3.70
2023-04-12T04:21:47.627Z,3.70
2023-04-12T04:24:21.530Z,3.80
2023-04-12T04:26:57.579Z,3.80
2023-04-12T04:29:25.923Z,3.80
2023-04-12T04:32:00.705Z,3.80
2023-04-12T04:34:41.515Z,3.90
2023-04-12T04:37:15.506Z,3.90
2023-04-12T04:39:50.603Z,3.90
2023-04-12T04:42:17.819Z,3.90
2023-04-12T04:44:51.577Z,3.90
2023-04-12T04:47:25.583Z,3.90
2023-04-12T04:49:52.839Z,3.90
2023-04-12T04:52:26.532Z,3.90
2023-04-12T04:54:57.905Z,3.90
2023-04-12T04:57:33.932Z,4.00
2023-04-12T05:00:07.704Z,4.00
2023-04-12T05:02:34.934Z,4.10
2023-04-12T05:05:09.659Z,4.10
2023-04-12T05:07:43.689Z,4.10
2023-04-12T05:10:11.921Z,4.20
2023-04-12T05:12:45.650Z,4.30
2023-04-12T05:15:13.090Z,4.30
2023-04-12T05:17:47.727Z,4.40
2023-04-12T05:20:21.628Z,4.40
2023-04-12T05:22:49.003Z,4.40
2023-04-12T05:25:22.606Z,4.50
2023-04-12T05:27:51.989Z,4.50
2023-04-12T05:30:26.987Z,4.60
2023-04-12T05:33:06.693Z,4.60
2023-04-12T05:35:40.745Z,4.70
2023-04-12T05:38:07.904Z,4.80
2023-04-12T05:40:43.607Z,4.90
2023-04-12T05:43:14.251Z,5.00
2023-04-12T05:45:48.663Z,5.10
2023-04-12T05:48:22.616Z,5.30
2023-04-12T05:50:54.069Z,5.40
2023-04-12T05:53:28.668Z,5.50
2023-04-12T05:55:56.467Z,5.60
2023-04-12T05:58:30.668Z,5.70
2023-04-12T06:00:57.841Z,5.80
2023-04-12T06:03:33.401Z,5.90
2023-04-12T06:06:09.638Z,6.00
2023-04-12T06:08:44.546Z,6.10
2023-04-12T06:11:18.611Z,6.20
2023-04-12T06:13:45.848Z,6.30
2023-04-12T06:16:20.654Z,6.40
2023-04-12T06:18:54.632Z,6.50
2023-04-12T06:21:21.960Z,6.50
2023-04-12T06:23:55.607Z,6.60
2023-04-12T06:26:38.996Z,6.70
2023-04-12T06:29:13.966Z,6.80
2023-04-12T06:31:41.518Z,6.80
2023-04-12T06:34:25.572Z,6.90
2023-04-12T06:36:52.877Z,6.90
2023-04-12T06:39:26.567Z,7.00
2023-04-12T06:41:53.676Z,7.10
2023-04-12T06:44:30.689Z,7.10
2023-04-12T06:46:58.436Z,7.20
2023-04-12T06:49:32.705Z,7.20
2023-04-12T06:52:00.276Z,7.30
2023-04-12T06:54:33.615Z,7.40
2023-04-12T06:57:01.963Z,7.50
2023-04-12T06:59:35.643Z,7.60
2023-04-12T07:02:02.826Z,7.60
2023-04-12T07:04:36.609Z,7.70
2023-04-12T07:07:10.585Z,7.70
2023-04-12T07:09:44.725Z,7.70
2023-04-12T07:12:11.943Z,7.80
2023-04-12T07:14:46.000Z,7.90
2023-04-12T07:17:19.685Z,7.90
2023-04-12T07:19:53.712Z,8.00
2023-04-12T07:22:21.247Z,8.00
2023-04-12T07:24:56.634Z,8.10
2023-04-12T07:27:33.779Z,8.20
2023-04-12T07:30:00.940Z,8.30
2023-04-12T07:32:34.889Z,8.40
2023-04-12T07:35:15.699Z,8.40
2023-04-12T07:37:49.866Z,8.60
2023-04-12T07:40:17.261Z,8.70
2023-04-12T07:42:50.592Z,8.80
2023-04-12T07:45:24.912Z,8.90
2023-04-12T07:47:59.150Z,9.00
2023-04-12T07:50:33.212Z,9.10
2023-04-12T07:53:26.776Z,9.20
2023-04-12T07:55:55.315Z,9.40
2023-04-12T07:58:32.766Z,9.40
2023-04-12T08:01:01.224Z,9.50
2023-04-12T08:03:35.745Z,9.50
2023-04-12T08:06:09.711Z,9.60
2023-04-12T08:08:43.596Z,9.80
2023-04-12T08:11:11.088Z,10.00
2023-04-12T08:13:45.676Z,10.20
2023-04-12T08:16:13.579Z,10.40
2023-04-12T08:18:50.815Z,10.50
2023-04-12T08:21:17.976Z,10.60
2023-04-12T08:23:51.633Z,10.80
2023-04-12T08:26:18.908Z,10.90
2023-04-12T08:28:52.746Z,11.10
2023-04-12T08:31:20.319Z,11.20
2023-04-12T08:33:53.647Z,11.30
2023-04-12T08:36:21.085Z,11.40
2023-04-12T08:38:58.696Z,11.50
2023-04-12T08:41:32.658Z,11.50
2023-04-12T08:44:00.905Z,11.50
2023-04-12T08:46:36.771Z,11.60
2023-04-12T08:49:03.911Z,11.70
2023-04-12T08:51:40.646Z,11.80
2023-04-12T08:54:07.889Z,11.90
2023-04-12T08:56:42.646Z,11.90
2023-04-12T08:59:10.806Z,12.00
2023-04-12T09:01:48.882Z,12.10
2023-04-12T09:04:16.440Z,12.10
2023-04-12T09:06:56.782Z,12.10
2023-04-12T09:09:49.849Z,12.10
2023-04-12T09:12:26.759Z,12.00
2023-04-12T09:15:13.702Z,12.00
2023-04-12T09:17:48.747Z,11.90
2023-04-12T09:20:19.215Z,11.80
2023-04-12T09:22:52.804Z,11.80
2023-04-12T09:25:35.206Z,11.80
2023-04-12T09:28:08.747Z,11.70
2023-04-12T09:30:44.906Z,11.60
2023-04-12T09:33:19.802Z,11.60
2023-04-12T09:36:00.840Z,11.60
2023-04-12T09:38:28.325Z,11.60
2023-04-12T09:41:02.768Z,11.60
2023-04-12T09:43:40.970Z,11.60
2023-04-12T09:46:19.787Z,11.60
2023-04-12T09:48:52.717Z,11.60
2023-04-12T09:51:37.924Z,11.70
2023-04-12T09:54:13.769Z,11.70
2023-04-12T09:56:48.787Z,11.80
2023-04-12T09:59:17.376Z,11.90
2023-04-12T10:01:51.915Z,11.90
2023-04-12T10:04:20.954Z,12.00
2023-04-12T10:06:55.807Z,12.00
2023-04-12T10:09:23.300Z,12.10
2023-04-12T10:11:58.801Z,12.20
2023-04-12T10:14:29.323Z,12.20
2023-04-12T10:17:05.730Z,12.30
2023-04-12T10:19:42.712Z,12.30
2023-04-12T10:22:10.744Z,12.30
2023-04-12T10:24:45.925Z,12.30
2023-04-12T10:27:19.781Z,12.30
2023-04-12T10:29:47.464Z,12.40
2023-04-12T10:32:31.165Z,12.40
2023-04-12T10:35:16.810Z,12.50
2023-04-12T10:38:10.931Z,12.50
2023-04-12T10:40:38.891Z,12.60
2023-04-12T10:43:34.813Z,12.60
2023-04-12T10:46:09.437Z,12.60
2023-04-12T10:48:59.932Z,12.60
2023-04-12T10:51:36.950Z,12.60
2023-04-12T10:54:25.904Z,12.60
2023-04-12T10:56:53.203Z,12.60
2023-04-12T10:59:45.021Z,12.60
2023-04-12T11:02:20.866Z,12.50
2023-04-12T11:05:18.039Z,12.50
2023-04-12T11:07:52.848Z,12.50
2023-04-12T11:10:24.667Z,12.50
2023-04-12T11:13:03.810Z,12.50
2023-04-12T11:15:40.809Z,12.40
2023-04-12T11:18:14.881Z,12.40
2023-04-12T11:20:48.833Z,12.40
2023-04-12T11:23:16.436Z,12.40
2023-04-12T11:25:51.111Z,12.40
2023-04-12T11:28:29.858Z,12.40
2023-04-12T11:30:59.198Z,12.40
2023-04-12T11:33:46.901Z,12.40
2023-04-12T11:36:14.530Z,12.40
2023-04-12T11:38:48.844Z,12.40
2023-04-12T11:41:24.000Z,12.40
2023-04-12T11:43:51.224Z,12.40
2023-04-12T11:46:25.945Z,12.40
2023-04-12T11:48:53.567Z,12.40
2023-04-12T11:51:32.444Z,12.40
2023-04-12T11:54:00.688Z,12.40
2023-04-12T11:56:29.786Z,12.40
2023-04-12T11:59:03.969Z,12.50
2023-04-12T12:01:32.393Z,12.50
2023-04-12T12:04:07.245Z,12.60
2023-04-12T12:06:41.363Z,12.60
2023-04-12T12:09:14.833Z,12.50
2023-04-12T12:11:41.931Z,12.50
2023-04-12T12:14:15.855Z,12.50
2023-04-12T12:16:42.916Z,12.50
2023-04-12T12:19:16.778Z,12.40
2023-04-12T12:21:43.922Z,12.30
2023-04-12T12:24:20.834Z,12.20
2023-04-12T12:26:57.923Z,12.20
2023-04-12T12:29:32.864Z,12.10
2023-04-12T12:32:01.926Z,11.90
2023-04-12T12:34:40.862Z,11.90
2023-04-12T12:37:15.098Z,11.80
2023-04-12T12:40:27.861Z,11.70
2023-04-12T12:42:56.431Z,11.70
2023-04-12T12:45:32.823Z,11.60
2023-04-12T12:48:03.136Z,11.60
2023-04-12T12:50:39.949Z,11.50
2023-04-12T12:53:07.318Z,11.50
2023-04-12T12:55:41.889Z,11.40
2023-04-12T12:58:15.874Z,11.40
2023-04-12T13:00:43.061Z,11.30
2023-04-12T13:03:18.249Z,11.30
2023-04-12T13:05:45.381Z,11.20
2023-04-12T13:08:19.017Z,11.20
2023-04-12T13:10:46.439Z,11.10
2023-04-12T13:13:20.314Z,11.10
2023-04-12T13:15:47.951Z,11.10
2023-04-12T13:18:25.023Z,11.10
2023-04-12T13:20:52.788Z,11.10
2023-04-12T13:23:26.919Z,11.10
2023-04-12T13:25:54.298Z,11.10
2023-04-12T13:28:27.927Z,11.10
2023-04-12T13:31:01.930Z,11.00
2023-04-12T13:33:36.014Z,11.00
2023-04-12T13:36:15.898Z,11.00
2023-04-12T13:38:43.006Z,11.00
2023-04-12T13:41:16.968Z,11.00
2023-04-12T13:43:44.124Z,11.00
2023-04-12T13:46:13.202Z,11.00
2023-04-12T13:48:46.961Z,10.90
2023-04-12T13:51:21.043Z,10.90
2023-04-12T13:53:51.247Z,10.80
2023-04-12T13:56:26.974Z,10.70
2023-04-12T13:58:55.409Z,10.70
2023-04-12T14:01:31.989Z,10.60
2023-04-12T14:04:05.926Z,10.60
2023-04-12T14:06:33.215Z,10.60
2023-04-12T14:09:06.950Z,10.60
2023-04-12T14:11:47.515Z,10.60
2023-04-12T14:14:20.998Z,10.60
2023-04-12T14:16:51.163Z,10.60
2023-04-12T14:19:25.026Z,10.60
2023-04-12T14:21:59.005Z,10.50
2023-04-12T14:24:33.924Z,10.50
2023-04-12T14:27:08.050Z,10.50
2023-04-12T14:29:42.070Z,10.40
2023-04-12T14:32:16.400Z,10.40
2023-04-12T14:34:50.120Z,10.30
2023-04-12T14:37:29.893Z,10.30
2023-04-12T14:40:04.000Z,10.30
2023-04-12T14:42:38.053Z,10.30
2023-04-12T14:45:08.151Z,10.30
2023-04-12T14:47:43.066Z,10.20
2023-04-12T14:50:10.880Z,10.10
2023-04-12T14:52:44.915Z,10.10
2023-04-12T14:55:19.009Z,10.10
2023-04-12T14:57:46.275Z,10.00
2023-04-12T15:00:21.984Z,10.00
2023-04-12T15:02:50.136Z,10.00
2023-04-12T15:05:24.281Z,10.00
2023-04-12T15:07:58.017Z,9.90
2023-04-12T15:10:32.981Z,9.90
2023-04-12T15:13:07.018Z,9.90
2023-04-12T15:15:40.940Z,9.90
2023-04-12T15:18:08.861Z,9.90
2023-04-12T15:20:43.050Z,9.90
2023-04-12T15:23:10.370Z,9.90
2023-04-12T15:25:43.936Z,9.80
2023-04-12T15:28:11.440Z,9.80
2023-04-12T15:30:46.015Z,9.80
2023-04-12T15:33:21.001Z,9.80
2023-04-12T15:35:57.968Z,9.80
2023-04-12T15:38:33.041Z,9.70
2023-04-12T15:41:01.872Z,9.70
2023-04-12T15:43:38.730Z,9.70
2023-04-12T15:46:33.933Z,9.60
2023-04-12T15:49:07.987Z,9.70
2023-04-12T15:51:44.945Z,9.70
2023-04-12T15:54:12.345Z,9.70
2023-04-12T15:56:45.971Z,9.70
2023-04-12T15:59:13.117Z,9.70
2023-04-12T16:01:47.142Z,9.70
2023-04-12T16:04:16.545Z,9.70
2023-04-12T16:06:51.061Z,9.70
2023-04-12T16:09:18.191Z,9.70
2023-04-12T16:11:53.052Z,9.80
2023-04-12T16:14:27.091Z,9.80
2023-04-12T16:16:54.446Z,9.80
2023-04-12T16:19:27.988Z,9.80
2023-04-12T16:21:55.103Z,9.80
2023-04-12T16:24:36.048Z,9.80
2023-04-12T16:27:10.071Z,9.80
2023-04-12T16:29:37.439Z,9.80
2023-04-12T16:32:11.159Z,9.80
2023-04-12T16:34:52.043Z,9.80
2023-04-12T16:37:19.349Z,9.80
2023-04-12T16:39:53.045Z,9.80
2023-04-12T16:42:29.064Z,9.80
2023-04-12T16:45:03.092Z,9.90
2023-04-12T16:47:37.100Z,9.80
2023-04-12T16:50:12.165Z,9.80
2023-04-12T16:52:47.092Z,9.80
2023-04-12T16:55:21.033Z,9.80
2023-04-12T16:57:53.243Z,9.80
2023-04-12T17:00:32.111Z,9.80
2023-04-12T17:03:05.993Z,9.80
2023-04-12T17:05:33.659Z,9.80
2023-04-12T17:08:10.045Z,9.80
2023-04-12T17:10:51.099Z,9.80
2023-04-12T17:13:25.149Z,9.80
2023-04-12T17:15:52.345Z,9.80
2023-04-12T17:18:26.026Z,9.80
2023-04-12T17:21:00.105Z,9.80
2023-04-12T17:23:34.008Z,9.80
2023-04-12T17:26:10.700Z,9.80
2023-04-12T17:28:46.109Z,9.80
2023-04-12T17:31:20.128Z,9.80
2023-04-12T17:33:54.505Z,9.80
2023-04-12T17:36:38.107Z,9.80
2023-04-12T17:39:05.368Z,9.90
2023-04-12T17:41:41.624Z,9.90
2023-04-12T17:44:16.710Z,9.80
2023-04-12T17:46:44.438Z,9.80
2023-04-12T17:49:18.154Z,9.80
2023-04-12T17:51:54.759Z,9.80
2023-04-12T17:54:29.333Z,9.80
2023-04-12T17:57:04.093Z,9.70
2023-04-12T17:59:32.220Z,9.80
2023-04-12T18:02:09.281Z,9.80
2023-04-12T18:04:36.937Z,9.80
2023-04-12T18:07:16.150Z,9.80
2023-04-12T18:09:44.973Z,9.80
2023-04-12T18:12:20.121Z,9.80
2023-04-12T18:14:54.138Z,9.80
2023-04-12T18:17:21.481Z,9.80
2023-04-12T18:19:55.135Z,9.70
2023-04-12T18:22:29.227Z,9.80
2023-04-12T18:25:03.220Z,9.70
2023-04-12T18:27:32.269Z,9.80
2023-04-12T18:30:08.120Z,9.80
2023-04-12T18:32:42.259Z,9.80
2023-04-12T18:35:23.335Z,9.80
2023-04-12T18:37:50.697Z,9.80
2023-04-12T18:40:25.177Z,9.80
2023-04-12T18:42:53.016Z,9.80
2023-04-12T18:45:27.321Z,9.80
2023-04-12T18:47:54.871Z,9.80
2023-04-12T18:50:22.272Z,9.80
2023-04-12T18:52:56.387Z,9.80
2023-04-12T18:55:30.211Z,9.80
2023-04-12T18:58:04.255Z,9.80
2023-04-12T19:00:32.043Z,9.70
2023-04-12T19:03:06.404Z,9.80
2023-04-12T19:05:35.851Z,9.80
2023-04-12T19:08:10.228Z,9.80
2023-04-12T19:10:44.205Z,9.80
2023-04-12T19:13:11.555Z,9.80
2023-04-12T19:15:45.301Z,9.80
2023-04-12T19:18:19.431Z,9.80
2023-04-12T19:20:46.951Z,9.80
2023-04-12T19:23:21.115Z,9.80
2023-04-12T19:25:55.306Z,9.80
2023-04-12T19:28:22.703Z,9.80
2023-04-12T19:30:56.212Z,9.80
2023-04-12T19:33:31.176Z,9.80
2023-04-12T19:36:05.177Z,9.80
2023-04-12T19:38:39.152Z,9.80
2023-04-12T19:41:13.170Z,9.80
2023-04-12T19:43:43.397Z,9.80
2023-04-12T19:46:17.266Z,9.80
2023-04-12T19:48:45.656Z,9.80
2023-04-12T19:51:21.425Z,9.80
2023-04-12T19:53:57.473Z,9.80
2023-04-12T19:56:25.794Z,9.80
2023-04-12T19:59:04.909Z,9.80
2023-04-12T20:01:43.295Z,9.80
2023-04-12T20:04:17.271Z,9.80
2023-04-12T20:06:51.056Z,9.80
2023-04-12T20:09:25.163Z,9.90
2023-04-12T20:11:56.794Z,9.90
2023-04-12T20:14:33.157Z,9.90
2023-04-12T20:17:00.851Z,9.90
2023-04-12T20:19:35.208Z,9.90
2023-04-12T20:22:04.141Z,9.90
2023-04-12T20:24:41.501Z,9.90
2023-04-12T20:27:16.264Z,9.90
2023-04-12T20:29:51.203Z,9.90
2023-04-12T20:32:25.179Z,9.90
2023-04-12T20:35:03.044Z,9.90
2023-04-12T20:37:44.192Z,9.90
2023-04-12T20:40:11.910Z,9.80
2023-04-12T20:42:46.225Z,9.80
2023-04-12T20:45:14.195Z,9.70
2023-04-12T20:47:48.301Z,9.70
2023-04-12T20:50:25.394Z,9.70
2023-04-12T20:53:12.323Z,9.70
2023-04-12T20:55:39.800Z,9.60
2023-04-12T20:58:14.232Z,9.60
2023-04-12T21:00:41.619Z,9.60
2023-04-12T21:03:17.545Z,9.40
2023-04-12T21:05:53.150Z,9.20
2023-04-12T21:08:27.329Z,9.20
2023-04-12T21:11:01.274Z,9.20
2023-04-12T21:13:30.175Z,9.20
2023-04-12T21:16:05.272Z,9.20
2023-04-12T21:18:36.625Z,9.20
2023-04-12T21:21:10.299Z,9.20
2023-04-12T21:23:37.986Z,9.20
2023-04-12T21:26:12.221Z,9.20
2023-04-12T21:28:46.172Z,9.20
2023-04-12T21:31:20.375Z,9.20
2023-04-12T21:33:55.314Z,9.20
2023-04-12T21:36:22.702Z,9.20
2023-04-12T21:38:50.062Z,9.20
2023-04-12T21:41:24.108Z,9.10
2023-04-12T21:43:52.526Z,9.10
2023-04-12T21:46:26.202Z,9.10
2023-04-12T21:49:00.438Z,9.10
2023-04-12T21:51:35.338Z,9.10
2023-04-12T21:54:15.342Z,9.10
2023-04-12T21:56:42.748Z,9.10
2023-04-12T21:59:10.008Z,9.10
2023-04-12T22:01:44.168Z,9.10
2023-04-12T22:04:13.061Z,9.10
2023-04-12T22:06:47.300Z,9.10
2023-04-12T22:09:14.563Z,9.10
2023-04-12T22:11:48.272Z,9.00
2023-04-12T22:14:22.233Z,9.00
2023-04-12T22:16:59.394Z,9.00
2023-04-12T22:19:26.715Z,8.90
2023-04-12T22:22:02.357Z,8.90
2023-04-12T22:24:46.333Z,8.90
2023-04-12T22:27:21.261Z,8.90
2023-04-12T22:29:56.305Z,8.80
2023-04-12T22:32:30.326Z,8.80
2023-04-12T22:35:09.151Z,8.70
2023-04-12T22:37:40.913Z,8.70
2023-04-12T22:40:21.300Z,8.70
2023-04-12T22:42:55.281Z,8.60
2023-04-12T22:45:22.598Z,8.60
2023-04-12T22:47:56.303Z,8.50
2023-04-12T22:50:31.623Z,8.50
2023-04-12T22:53:20.245Z,8.50
2023-04-12T22:55:54.519Z,8.50
2023-04-12T22:58:22.145Z,8.50
2023-04-12T23:00:57.313Z,8.40
2023-04-12T23:03:24.798Z,8.40
2023-04-12T23:05:59.294Z,8.50
2023-04-12T23:08:26.688Z,8.40
2023-04-12T23:11:00.200Z,8.40
2023-04-12T23:13:36.247Z,8.40
2023-04-12T23:16:04.155Z,8.30
2023-04-12T23:18:39.286Z,8.30
2023-04-12T23:21:08.963Z,8.30
2023-04-12T23:23:46.362Z,8.30
2023-04-12T23:26:20.326Z,8.20
2023-04-12T23:28:47.779Z,8.20
2023-04-12T23:31:22.490Z,8.10
2023-04-12T23:33:51.007Z,8.10
2023-04-12T23:36:28.298Z,8.10
2023-04-12T23:39:02.468Z,8.00
2023-04-12T23:41:39.265Z,8.00
2023-04-12T23:44:13.511Z,8.00
2023-04-12T23:46:41.359Z,8.00
2023-04-12T23:49:15.199Z,8.00
2023-04-12T23:51:42.712Z,8.00
2023-04-12T23:54:22.239Z,8.00
2023-04-12T23:56:55.516Z,8.00
2023-04-12T23:59:29.356Z,7.90
